createdAt,value
2018-07-01T00:00:48.174Z,16.20
2018-07-01T00:03:16.763Z,16.20
2018-07-01T00:05:50.834Z,16.20
2018-07-01T00:08:19.638Z,16.20
2018-07-01T00:10:48.418Z,16.20
2018-07-01T00:13:16.546Z,16.20
2018-07-01T00:15:45.632Z,16.20
2018-07-01T00:18:13.747Z,16.10
2018-07-01T00:20:41.986Z,16.20
2018-07-01T00:23:10.238Z,16.10
2018-07-01T00:25:39.282Z,16.00
2018-07-01T00:28:07.438Z,15.90
2018-07-01T00:30:35.679Z,15.90
2018-07-01T00:33:04.601Z,15.90
2018-07-01T00:35:33.161Z,15.80
2018-07-01T00:38:02.713Z,15.70
2018-07-01T00:40:31.999Z,15.60
2018-07-01T00:43:03.238Z,15.60
2018-07-01T00:45:32.181Z,15.50
2018-07-01T00:48:03.618Z,15.50
2018-07-01T00:50:31.773Z,15.50
2018-07-01T00:53:01.117Z,15.50
2018-07-01T00:55:30.506Z,15.50
2018-07-01T00:57:58.854Z,15.40
2018-07-01T01:00:33.701Z,15.40
2018-07-01T01:03:04.271Z,15.40
2018-07-01T01:05:33.353Z,15.40
2018-07-01T01:08:01.821Z,15.30
2018-07-01T01:10:29.885Z,15.30
2018-07-01T01:12:58.556Z,15.20
2018-07-01T01:15:26.894Z,15.20
2018-07-01T01:17:55.129Z,15.30
2018-07-01T01:20:24.091Z,15.30
2018-07-01T01:25:23.134Z,15.30
2018-07-01T01:27:51.417Z,15.20
2018-07-01T01:30:19.734Z,15.20
2018-07-01T01:32:47.877Z,15.20
2018-07-01T01:35:17.255Z,15.10
2018-07-01T01:37:46.639Z,14.90
2018-07-01T01:40:17.888Z,14.50
2018-07-01T01:42:54.790Z,13.90
2018-07-01T01:45:27.545Z,13.90
2018-07-01T01:48:03.117Z,13.90
2018-07-01T01:50:36.715Z,14.10
2018-07-01T01:54:11.512Z,14.10
2018-07-01T01:56:44.552Z,14.20
2018-07-01T01:59:19.651Z,14.30
2018-07-01T02:01:54.709Z,14.30
2018-07-01T02:04:28.324Z,14.30
2018-07-01T02:06:59.470Z,13.70
2018-07-01T02:09:30.982Z,13.70
2018-07-01T02:12:00.533Z,13.50
2018-07-01T02:14:46.833Z,13.60
2018-07-01T02:17:22.315Z,13.70
2018-07-01T02:19:50.815Z,13.70
2018-07-01T02:22:23.916Z,13.60
2018-07-01T02:24:54.845Z,13.10
2018-07-01T02:27:23.021Z,13.20
2018-07-01T02:29:51.269Z,13.30
2018-07-01T02:32:20.157Z,13.20
2018-07-01T02:34:48.286Z,13.40
2018-07-01T02:37:16.429Z,13.00
2018-07-01T02:39:45.239Z,13.20
2018-07-01T02:42:14.601Z,13.40
2018-07-01T02:44:42.658Z,13.60
2018-07-01T02:47:11.396Z,13.70
2018-07-01T02:49:40.460Z,13.60
2018-07-01T02:52:09.210Z,13.20
2018-07-01T02:54:37.933Z,13.00
2018-07-01T02:57:06.113Z,12.50
2018-07-01T02:59:34.667Z,12.40
2018-07-01T03:02:02.871Z,12.10
2018-07-01T03:04:31.599Z,12.00
2018-07-01T03:07:00.564Z,12.20
2018-07-01T03:09:29.134Z,12.10
2018-07-01T03:11:58.226Z,12.10
2018-07-01T03:14:26.467Z,12.10
2018-07-01T03:16:54.716Z,12.10
2018-07-01T03:19:22.801Z,12.00
2018-07-01T03:21:53.201Z,12.10
2018-07-01T03:24:21.234Z,12.20
2018-07-01T03:26:49.326Z,12.30
2018-07-01T03:29:17.377Z,12.30
2018-07-01T03:31:46.569Z,12.40
2018-07-01T03:34:14.660Z,12.50
2018-07-01T03:36:42.783Z,12.60
2018-07-01T03:39:11.362Z,12.70
2018-07-01T03:41:39.396Z,12.60
2018-07-01T03:44:11.295Z,12.50
2018-07-01T03:46:39.427Z,11.90
2018-07-01T03:49:07.578Z,11.90
2018-07-01T03:51:37.347Z,11.70
2018-07-01T03:54:05.467Z,11.70
2018-07-01T03:56:34.640Z,11.60
2018-07-01T03:59:02.680Z,11.60
2018-07-01T04:01:30.694Z,11.70
2018-07-01T04:03:58.836Z,11.70
2018-07-01T04:06:26.833Z,11.70
2018-07-01T04:08:54.975Z,11.70
2018-07-01T04:11:23.246Z,11.80
2018-07-01T04:13:51.670Z,11.90
2018-07-01T04:16:19.913Z,12.00
2018-07-01T04:18:49.645Z,12.00
2018-07-01T04:21:18.015Z,12.00
2018-07-01T04:23:48.077Z,11.90
2018-07-01T04:26:16.331Z,11.90
2018-07-01T04:28:45.054Z,12.00
2018-07-01T04:31:13.375Z,12.00
2018-07-01T04:33:41.810Z,11.90
2018-07-01T04:36:10.148Z,12.00
2018-07-01T04:38:38.687Z,12.10
2018-07-01T04:41:06.998Z,12.10
2018-07-01T04:43:35.616Z,12.20
2018-07-01T04:46:03.667Z,12.20
2018-07-01T04:48:32.478Z,12.30
2018-07-01T04:51:00.755Z,12.50
2018-07-01T04:53:30.797Z,12.90
2018-07-01T04:55:59.083Z,13.40
2018-07-01T04:58:27.179Z,13.60
2018-07-01T05:00:55.519Z,13.90
2018-07-01T05:03:23.587Z,14.00
2018-07-01T05:05:51.590Z,14.10
2018-07-01T05:08:19.558Z,14.30
2018-07-01T05:10:47.560Z,14.20
2018-07-01T05:13:16.032Z,14.20
2018-07-01T05:15:44.100Z,14.20
2018-07-01T05:18:12.521Z,14.20
2018-07-01T05:20:41.819Z,14.30
2018-07-01T05:23:10.111Z,14.40
2018-07-01T05:25:38.979Z,14.40
2018-07-01T05:28:08.324Z,14.40
2018-07-01T05:30:36.830Z,14.50
2018-07-01T05:33:04.936Z,14.50
2018-07-01T05:35:34.713Z,14.60
2018-07-01T05:38:02.827Z,14.80
2018-07-01T05:40:31.654Z,14.90
2018-07-01T05:43:00.929Z,14.90
2018-07-01T05:45:28.990Z,14.90
2018-07-01T05:47:57.112Z,15.00
2018-07-01T05:50:25.142Z,15.10
2018-07-01T05:52:53.822Z,15.10
2018-07-01T05:55:21.890Z,15.20
2018-07-01T05:57:50.028Z,15.20
2018-07-01T06:03:03.313Z,15.50
2018-07-01T06:05:31.954Z,15.50
2018-07-01T06:08:03.163Z,15.60
2018-07-01T06:10:31.369Z,15.60
2018-07-01T06:12:59.771Z,15.70
2018-07-01T06:15:28.131Z,15.80
2018-07-01T06:17:56.854Z,15.80
2018-07-01T06:20:25.338Z,15.90
2018-07-01T06:22:53.857Z,16.00
2018-07-01T06:25:21.998Z,16.10
2018-07-01T06:27:50.185Z,16.20
2018-07-01T06:30:18.977Z,16.30
2018-07-01T06:32:47.123Z,16.40
2018-07-01T06:35:15.226Z,16.50
2018-07-01T06:37:44.273Z,16.60
2018-07-01T06:40:12.362Z,17.00
2018-07-01T06:42:40.584Z,17.40
2018-07-01T06:45:08.773Z,17.80
2018-07-01T06:50:06.202Z,18.90
2018-07-01T06:52:34.318Z,20.80
2018-07-01T06:55:02.570Z,21.80
2018-07-01T06:57:34.637Z,21.60
2018-07-01T07:00:03.764Z,22.50
2018-07-01T07:05:01.082Z,21.80
2018-07-01T07:07:29.676Z,21.30
2018-07-01T07:09:58.012Z,22.20
2018-07-01T07:12:27.545Z,22.30
2018-07-01T07:14:56.217Z,22.40
2018-07-01T07:17:24.458Z,22.80
2018-07-01T07:19:52.822Z,22.60
2018-07-01T07:22:21.575Z,22.70
2018-07-01T07:24:49.826Z,23.70
2018-07-01T07:27:18.615Z,23.60
2018-07-01T07:29:49.275Z,23.70
2018-07-01T07:32:17.527Z,23.90
2018-07-01T07:34:51.360Z,23.20
2018-07-01T07:37:19.680Z,22.70
2018-07-01T07:39:49.818Z,24.00
2018-07-01T07:42:19.142Z,24.50
2018-07-01T07:44:50.122Z,24.50
2018-07-01T07:47:19.299Z,24.50
2018-07-01T07:49:47.685Z,24.20
2018-07-01T07:52:19.676Z,24.60
2018-07-01T07:54:48.675Z,23.20
2018-07-01T07:57:17.261Z,22.70
2018-07-01T07:59:46.142Z,23.80
2018-07-01T08:02:15.098Z,24.60
2018-07-01T08:04:43.597Z,24.60
2018-07-01T08:07:12.754Z,25.30
2018-07-01T08:09:40.774Z,25.30
2018-07-01T08:12:09.360Z,26.00
2018-07-01T08:14:37.616Z,26.20
2018-07-01T08:19:35.446Z,26.10
2018-07-01T08:22:03.776Z,26.40
2018-07-01T08:24:33.060Z,25.80
2018-07-01T08:27:01.131Z,25.80
2018-07-01T08:29:31.301Z,25.20
2018-07-01T08:32:00.099Z,23.70
2018-07-01T08:34:28.647Z,24.50
2018-07-01T08:37:11.825Z,24.30
2018-07-01T08:39:40.246Z,24.80
2018-07-01T08:42:29.471Z,23.50
2018-07-01T08:45:03.229Z,22.80
2018-07-01T08:47:34.470Z,22.70
2018-07-01T08:52:33.764Z,23.80
2018-07-01T08:55:04.261Z,24.30
2018-07-01T08:57:33.561Z,25.30
2018-07-01T09:00:03.263Z,25.80
2018-07-01T09:02:31.343Z,26.00
2018-07-01T09:04:59.438Z,24.50
2018-07-01T09:07:28.177Z,25.20
2018-07-01T09:09:57.508Z,25.30
2018-07-01T09:12:26.263Z,25.50
2018-07-01T09:17:37.174Z,23.90
2018-07-01T09:20:15.836Z,23.20
2018-07-01T09:22:44.782Z,23.80
2018-07-01T09:25:15.092Z,24.30
2018-07-01T09:27:43.777Z,24.00
2018-07-01T09:30:13.613Z,25.20
2018-07-01T09:32:43.842Z,24.90
2018-07-01T09:35:13.430Z,25.70
2018-07-01T09:37:41.716Z,25.40
2018-07-01T09:40:10.226Z,25.30
2018-07-01T09:42:38.839Z,25.40
2018-07-01T09:45:07.874Z,26.80
2018-07-01T09:47:38.624Z,25.10
2018-07-01T09:50:07.451Z,24.40
2018-07-01T09:52:36.413Z,25.80
2018-07-01T09:55:04.999Z,26.00
2018-07-01T09:57:33.378Z,25.20
2018-07-01T10:02:38.967Z,23.90
2018-07-01T10:05:09.547Z,23.50
2018-07-01T10:07:37.701Z,22.10
2018-07-01T10:10:06.244Z,21.60
2018-07-01T10:12:34.274Z,21.90
2018-07-01T10:15:03.208Z,21.90
2018-07-01T10:17:31.356Z,21.50
2018-07-01T10:19:59.937Z,21.20
2018-07-01T10:22:28.567Z,21.10
2018-07-01T10:24:59.316Z,21.30
2018-07-01T10:27:29.775Z,21.30
2018-07-01T10:29:57.843Z,21.10
2018-07-01T10:32:26.958Z,21.40
2018-07-01T10:34:59.894Z,21.80
2018-07-01T10:37:28.089Z,22.10
2018-07-01T10:39:57.734Z,22.40
2018-07-01T10:42:27.906Z,21.90
2018-07-01T10:44:56.994Z,21.80
2018-07-01T10:47:27.330Z,22.30
2018-07-01T10:49:57.353Z,22.40
2018-07-01T10:52:25.463Z,22.70
2018-07-01T10:54:56.965Z,23.00
2018-07-01T10:57:25.830Z,22.80
2018-07-01T10:59:54.665Z,22.80
2018-07-01T11:02:23.508Z,21.40
2018-07-01T11:04:56.242Z,21.60
2018-07-01T11:07:24.482Z,21.70
2018-07-01T11:09:53.998Z,21.90
2018-07-01T11:12:22.338Z,22.20
2018-07-01T11:14:53.169Z,21.60
2018-07-01T11:17:22.462Z,21.50
2018-07-01T11:19:50.507Z,22.00
2018-07-01T11:22:24.604Z,22.20
2018-07-01T11:24:53.639Z,21.80
2018-07-01T11:27:28.284Z,22.50
2018-07-01T11:29:56.686Z,22.30
2018-07-01T11:32:28.006Z,22.60
2018-07-01T11:34:57.204Z,22.90
2018-07-01T11:37:25.987Z,23.30
2018-07-01T11:39:54.190Z,22.90
2018-07-01T11:42:23.619Z,23.20
2018-07-01T11:44:52.830Z,23.20
2018-07-01T11:47:22.934Z,23.20
2018-07-01T11:49:51.667Z,22.50
2018-07-01T11:52:19.967Z,22.30
2018-07-01T11:54:48.259Z,21.80
2018-07-01T11:57:19.841Z,21.90
2018-07-01T11:59:48.061Z,22.40
2018-07-01T12:02:16.861Z,22.60
2018-07-01T12:09:24.802Z,22.70
2018-07-01T12:11:53.014Z,23.00
2018-07-01T12:14:23.287Z,22.30
2018-07-01T12:16:53.080Z,22.40
2018-07-01T12:19:21.957Z,22.90
2018-07-01T12:21:50.238Z,23.20
2018-07-01T12:24:18.578Z,22.90
2018-07-01T12:26:47.830Z,23.50
2018-07-01T12:29:17.162Z,22.80
2018-07-01T12:31:46.049Z,22.50
2018-07-01T12:34:14.971Z,22.90
2018-07-01T12:36:43.721Z,22.90
2018-07-01T12:39:12.631Z,23.20
2018-07-01T12:41:41.083Z,23.10
2018-07-01T12:44:10.705Z,23.20
2018-07-01T12:46:39.653Z,23.40
2018-07-01T12:49:08.477Z,23.90
2018-07-01T12:51:39.453Z,24.20
2018-07-01T12:54:07.702Z,23.90
2018-07-01T12:56:37.312Z,23.70
2018-07-01T12:59:16.085Z,23.10
2018-07-01T13:01:45.322Z,23.00
2018-07-01T13:04:14.518Z,23.50
2018-07-01T13:06:44.871Z,23.90
2018-07-01T13:09:17.028Z,23.90
2018-07-01T13:11:47.346Z,23.30
2018-07-01T13:14:16.605Z,23.50
2018-07-01T13:16:45.529Z,23.00
2018-07-01T13:19:19.643Z,22.80
2018-07-01T13:21:50.103Z,23.00
2018-07-01T13:24:19.558Z,23.40
2018-07-01T13:26:50.148Z,23.80
2018-07-01T13:29:22.792Z,23.60
2018-07-01T13:31:52.546Z,23.70
2018-07-01T13:34:21.357Z,23.90
2018-07-01T13:36:49.842Z,24.00
2018-07-01T13:39:19.918Z,23.60
2018-07-01T13:41:50.238Z,23.70
2018-07-01T13:44:21.225Z,23.50
2018-07-01T13:46:49.318Z,23.60
2018-07-01T13:49:18.825Z,23.60
2018-07-01T13:51:54.462Z,24.10
2018-07-01T13:54:22.783Z,24.30
2018-07-01T13:56:51.057Z,24.30
2018-07-01T13:59:20.340Z,24.10
2018-07-01T14:01:49.209Z,24.30
2018-07-01T14:04:17.740Z,24.10
2018-07-01T14:06:48.502Z,23.70
2018-07-01T14:09:16.878Z,23.70
2018-07-01T14:11:44.944Z,23.80
2018-07-01T14:14:13.395Z,23.50
2018-07-01T14:16:42.395Z,23.80
2018-07-01T14:19:11.630Z,24.10
2018-07-01T14:21:40.218Z,24.60
2018-07-01T14:24:08.747Z,23.90
2018-07-01T14:26:37.488Z,24.10
2018-07-01T14:29:06.352Z,23.90
2018-07-01T14:31:34.736Z,24.50
2018-07-01T14:34:08.715Z,23.90
2018-07-01T14:36:37.851Z,23.90
2018-07-01T14:39:13.413Z,23.50
2018-07-01T14:41:43.244Z,23.50
2018-07-01T14:44:12.727Z,23.60
2018-07-01T14:46:43.675Z,23.70
2018-07-01T14:49:18.717Z,24.00
2018-07-01T14:51:47.474Z,23.40
2018-07-01T14:54:15.882Z,23.40
2018-07-01T14:56:45.949Z,23.90
2018-07-01T14:59:16.334Z,23.90
2018-07-01T15:01:47.498Z,23.70
2018-07-01T15:04:17.262Z,23.70
2018-07-01T15:06:46.692Z,23.80
2018-07-01T15:09:16.994Z,23.80
2018-07-01T15:11:46.052Z,23.70
2018-07-01T15:14:14.430Z,23.80
2018-07-01T15:16:43.383Z,24.10
2018-07-01T15:19:13.643Z,24.40
2018-07-01T15:21:41.797Z,24.20
2018-07-01T15:24:09.995Z,23.90
2018-07-01T15:26:41.149Z,23.50
2018-07-01T15:29:09.323Z,24.10
2018-07-01T15:31:37.546Z,24.30
2018-07-01T15:34:05.634Z,24.50
2018-07-01T15:36:36.593Z,24.10
2018-07-01T15:39:08.267Z,24.50
2018-07-01T15:41:37.653Z,24.30
2018-07-01T15:44:06.029Z,24.10
2018-07-01T15:46:36.262Z,24.00
2018-07-01T15:49:04.620Z,24.20
2018-07-01T15:51:33.002Z,24.10
2018-07-01T15:54:05.753Z,23.80
2018-07-01T15:56:34.189Z,23.70
2018-07-01T15:59:02.377Z,23.90
2018-07-01T16:01:32.129Z,24.10
2018-07-01T16:04:00.654Z,24.40
2018-07-01T16:06:28.777Z,24.40
2018-07-01T16:08:57.079Z,24.30
2018-07-01T16:11:26.348Z,24.20
2018-07-01T16:13:54.476Z,24.40
2018-07-01T16:16:22.636Z,24.00
2018-07-01T16:18:51.789Z,24.10
2018-07-01T16:21:20.845Z,24.20
2018-07-01T16:23:49.346Z,23.80
2018-07-01T16:26:23.297Z,23.70
2018-07-01T16:28:58.372Z,23.70
2018-07-01T16:31:29.339Z,23.40
2018-07-01T16:33:57.666Z,23.70
2018-07-01T16:36:26.577Z,23.80
2018-07-01T16:38:57.872Z,23.70
2018-07-01T16:41:28.290Z,23.80
2018-07-01T16:43:58.458Z,23.60
2018-07-01T16:46:27.917Z,23.70
2018-07-01T16:48:58.921Z,23.80
2018-07-01T16:51:28.329Z,23.60
2018-07-01T16:53:56.677Z,23.40
2018-07-01T16:56:28.091Z,23.20
2018-07-01T16:58:56.593Z,23.20
2018-07-01T17:01:27.687Z,23.20
2018-07-01T17:03:58.167Z,23.30
2018-07-01T17:06:26.879Z,23.60
2018-07-01T17:09:03.996Z,23.70
2018-07-01T17:11:33.778Z,23.40
2018-07-01T17:14:03.660Z,23.30
2018-07-01T17:16:32.735Z,23.00
2018-07-01T17:19:01.132Z,22.90
2018-07-01T17:21:29.722Z,22.80
2018-07-01T17:23:58.004Z,22.70
2018-07-01T17:26:26.297Z,22.70
2018-07-01T17:28:56.018Z,22.70
2018-07-01T17:31:30.114Z,22.70
2018-07-01T17:33:58.966Z,22.60
2018-07-01T17:36:28.143Z,22.60
2018-07-01T17:38:56.346Z,22.60
2018-07-01T17:41:27.625Z,22.60
2018-07-01T17:43:56.286Z,22.40
2018-07-01T17:46:25.216Z,22.40
2018-07-01T17:48:53.202Z,22.20
2018-07-01T17:51:21.442Z,22.30
2018-07-01T17:53:53.969Z,22.10
2018-07-01T17:56:23.684Z,22.10
2018-07-01T17:58:52.730Z,22.10
2018-07-01T18:01:21.039Z,22.10
2018-07-01T18:03:49.641Z,21.90
2018-07-01T18:06:18.895Z,21.90
2018-07-01T18:08:51.424Z,21.80
2018-07-01T18:11:21.113Z,21.80
2018-07-01T18:13:49.907Z,21.80
2018-07-01T18:16:20.546Z,21.70
2018-07-01T18:18:49.176Z,21.80
2018-07-01T18:21:19.858Z,21.80
2018-07-01T18:26:28.446Z,21.60
2018-07-01T18:29:08.188Z,21.50
2018-07-01T18:31:29.124Z,21.30
2018-07-01T18:33:57.623Z,21.30
2018-07-01T18:36:26.307Z,21.20
2018-07-01T18:38:59.537Z,21.30
2018-07-01T18:41:28.658Z,21.20
2018-07-01T18:44:01.845Z,21.20
2018-07-01T18:46:35.153Z,21.00
2018-07-01T18:49:05.128Z,20.90
2018-07-01T18:51:33.554Z,20.90
2018-07-01T18:54:05.190Z,20.80
2018-07-01T18:56:34.934Z,20.70
2018-07-01T18:59:03.617Z,20.70
2018-07-01T19:01:32.716Z,20.60
2018-07-01T19:04:01.622Z,20.60
2018-07-01T19:06:29.984Z,20.40
2018-07-01T19:11:37.488Z,20.30
2018-07-01T19:14:06.806Z,20.20
2018-07-01T19:16:39.221Z,20.20
2018-07-01T19:19:10.158Z,20.10
2018-07-01T19:21:39.146Z,20.10
2018-07-01T19:24:09.556Z,20.00
2018-07-01T19:26:42.151Z,19.90
2018-07-01T19:29:11.887Z,19.80
2018-07-01T19:31:40.599Z,19.80
2018-07-01T19:34:10.041Z,19.70
2018-07-01T19:36:40.914Z,19.60
2018-07-01T19:39:14.153Z,19.60
2018-07-01T19:41:43.234Z,19.40
2018-07-01T19:44:12.545Z,19.40
2018-07-01T19:46:41.286Z,19.30
2018-07-01T19:49:10.665Z,19.20
2018-07-01T19:51:40.251Z,19.20
2018-07-01T19:54:08.851Z,19.10
2018-07-01T19:56:37.289Z,19.10
2018-07-01T19:59:06.865Z,19.00
2018-07-01T20:01:36.459Z,19.00
2018-07-01T20:04:05.165Z,18.90
2018-07-01T20:06:33.593Z,18.90
2018-07-01T20:09:06.151Z,18.80
2018-07-01T20:11:39.142Z,18.70
2018-07-01T20:14:08.099Z,18.70
2018-07-01T20:16:38.459Z,18.60
2018-07-01T20:19:07.576Z,18.60
2018-07-01T20:21:37.955Z,18.60
2018-07-01T20:24:06.947Z,18.50
2018-07-01T20:26:35.995Z,18.50
2018-07-01T20:29:05.394Z,18.50
2018-07-01T20:31:35.886Z,18.50
2018-07-01T20:34:05.305Z,18.40
2018-07-01T20:36:35.558Z,18.40
2018-07-01T20:39:22.088Z,18.40
2018-07-01T20:41:51.637Z,18.30
2018-07-01T20:44:20.538Z,18.30
2018-07-01T20:46:53.550Z,18.20
2018-07-01T20:49:23.707Z,18.20
2018-07-01T20:51:52.726Z,18.10
2018-07-01T20:54:21.723Z,18.10
2018-07-01T20:56:50.606Z,18.00
2018-07-01T20:59:19.938Z,18.00
2018-07-01T21:01:49.163Z,18.00
2018-07-01T21:04:17.323Z,17.90
2018-07-01T21:06:46.985Z,17.90
2018-07-01T21:09:17.329Z,17.90
2018-07-01T21:11:47.239Z,17.90
2018-07-01T21:14:15.645Z,17.80
2018-07-01T21:16:43.954Z,17.60
2018-07-01T21:19:14.060Z,17.50
2018-07-01T21:21:42.437Z,17.40
2018-07-01T21:24:12.093Z,17.30
2018-07-01T21:26:40.780Z,17.30
2018-07-01T21:29:09.006Z,17.30
2018-07-01T21:31:37.328Z,17.30
2018-07-01T21:34:09.023Z,17.30
2018-07-01T21:36:38.628Z,17.30
2018-07-01T21:39:12.648Z,17.30
2018-07-01T21:41:42.818Z,17.30
2018-07-01T21:44:11.232Z,17.30
2018-07-01T21:46:40.017Z,17.30
2018-07-01T21:49:10.545Z,17.30
2018-07-01T21:51:38.711Z,17.30
2018-07-01T21:54:08.592Z,17.20
2018-07-01T21:56:54.186Z,17.10
2018-07-01T21:59:22.284Z,17.00
2018-07-01T22:01:51.036Z,16.90
2018-07-01T22:04:19.300Z,17.00
2018-07-01T22:06:53.846Z,16.90
2018-07-01T22:09:24.431Z,16.90
2018-07-01T22:12:06.187Z,17.00
2018-07-01T22:16:47.342Z,16.90
2018-07-01T22:19:16.919Z,16.80
2018-07-01T22:21:46.767Z,16.70
2018-07-01T22:24:14.962Z,16.70
2018-07-01T22:26:43.585Z,16.70
2018-07-01T22:29:14.026Z,16.70
2018-07-01T22:31:42.102Z,16.60
2018-07-01T22:34:11.502Z,16.60
2018-07-01T22:36:40.967Z,16.60
2018-07-01T22:39:13.586Z,16.50
2018-07-01T22:41:44.466Z,16.50
2018-07-01T22:44:12.810Z,16.30
2018-07-01T22:46:41.948Z,16.30
2018-07-01T22:49:10.023Z,16.20
2018-07-01T22:51:39.136Z,16.20
2018-07-01T22:54:07.427Z,16.20
2018-07-01T22:56:36.850Z,16.20
2018-07-01T22:59:05.514Z,16.10
2018-07-01T23:01:35.007Z,16.10
2018-07-01T23:04:03.394Z,16.10
2018-07-01T23:06:31.681Z,16.10
2018-07-01T23:09:01.985Z,16.10
2018-07-01T23:11:31.385Z,16.10
2018-07-01T23:13:59.425Z,16.10
2018-07-01T23:16:31.217Z,16.10
2018-07-01T23:19:00.885Z,16.10
2018-07-01T23:21:29.479Z,16.00
2018-07-01T23:23:57.611Z,16.00
2018-07-01T23:26:25.694Z,16.00
2018-07-01T23:28:54.269Z,16.00
2018-07-01T23:31:22.359Z,16.00
2018-07-01T23:33:50.921Z,15.90
2018-07-01T23:36:19.648Z,15.90
2018-07-01T23:38:49.229Z,15.90
2018-07-01T23:41:17.829Z,15.90
2018-07-01T23:43:48.013Z,15.80
2018-07-01T23:46:18.085Z,15.80
2018-07-01T23:48:47.299Z,15.70
2018-07-01T23:51:16.193Z,15.70
2018-07-01T23:53:45.369Z,15.60
2018-07-01T23:56:14.946Z,15.40
2018-07-01T23:58:43.430Z,14.80
